createdAt,value
2023-04-22T00:00:17.796Z,8.60
2023-04-22T00:02:45.814Z,8.70
2023-04-22T00:05:16.455Z,8.70
2023-04-22T00:07:45.837Z,8.70
2023-04-22T00:10:13.017Z,8.80
2023-04-22T00:12:40.513Z,8.90
2023-04-22T00:15:08.270Z,8.90
2023-04-22T00:17:35.308Z,8.90
2023-04-22T00:20:02.405Z,8.80
2023-04-22T00:22:29.442Z,8.70
2023-04-22T00:24:56.515Z,8.70
2023-04-22T00:27:23.623Z,8.60
2023-04-22T00:29:50.920Z,8.60
2023-04-22T00:32:19.274Z,8.70
2023-04-22T00:34:46.315Z,8.70
2023-04-22T00:37:13.490Z,8.90
2023-04-22T00:39:40.848Z,9.00
2023-04-22T00:42:08.130Z,9.00
2023-04-22T00:44:36.752Z,9.10
2023-04-22T00:47:04.683Z,9.10
2023-04-22T00:49:32.085Z,9.20
2023-04-22T00:51:59.428Z,9.30
2023-04-22T00:54:26.951Z,9.30
2023-04-22T00:56:54.040Z,9.10
2023-04-22T00:59:23.468Z,9.00
2023-04-22T01:01:51.377Z,9.00
2023-04-22T01:04:19.018Z,9.10
2023-04-22T01:06:47.987Z,9.20
2023-04-22T01:09:15.430Z,9.00
2023-04-22T01:11:42.844Z,9.10
2023-04-22T01:14:10.044Z,9.00
2023-04-22T01:16:39.085Z,9.00
2023-04-22T01:19:06.827Z,9.10
2023-04-22T01:21:35.691Z,9.10
2023-04-22T01:24:02.765Z,9.20
2023-04-22T01:26:30.344Z,9.20
2023-04-22T01:28:57.595Z,9.20
2023-04-22T01:31:24.926Z,9.20
2023-04-22T01:33:52.377Z,9.20
2023-04-22T01:36:19.649Z,9.20
2023-04-22T01:38:46.850Z,9.20
2023-04-22T01:41:14.972Z,9.20
2023-04-22T01:43:43.141Z,9.20
2023-04-22T01:46:10.469Z,9.20
2023-04-22T01:48:40.129Z,9.30
2023-04-22T01:51:07.288Z,9.30
2023-04-22T01:53:34.344Z,9.30
2023-04-22T01:56:02.178Z,9.30
2023-04-22T01:58:29.990Z,9.30
2023-04-22T02:00:57.206Z,9.20
2023-04-22T02:03:24.431Z,9.10
2023-04-22T02:05:51.609Z,9.10
2023-04-22T02:08:18.700Z,9.10
2023-04-22T02:10:45.731Z,9.10
2023-04-22T02:13:12.803Z,9.20
2023-04-22T02:15:41.380Z,9.20
2023-04-22T02:18:10.379Z,9.10
2023-04-22T02:20:37.883Z,9.20
2023-04-22T02:23:05.579Z,9.10
2023-04-22T02:25:32.590Z,9.10
2023-04-22T02:27:59.744Z,9.10
2023-04-22T02:30:26.817Z,9.00
2023-04-22T02:32:53.857Z,9.00
2023-04-22T02:35:20.979Z,9.00
2023-04-22T02:37:48.032Z,9.00
2023-04-22T02:40:15.098Z,8.90
2023-04-22T02:42:42.092Z,8.90
2023-04-22T02:45:09.482Z,8.90
2023-04-22T02:47:36.585Z,8.90
2023-04-22T02:50:03.880Z,8.90
2023-04-22T02:52:30.940Z,8.90
2023-04-22T02:54:57.917Z,9.00
2023-04-22T02:57:24.984Z,9.00
2023-04-22T02:59:52.104Z,9.00
2023-04-22T03:02:19.308Z,9.10
2023-04-22T03:04:46.402Z,9.10
2023-04-22T03:07:13.483Z,9.30
2023-04-22T03:09:41.074Z,9.20
2023-04-22T03:12:08.416Z,9.30
2023-04-22T03:14:35.484Z,9.30
2023-04-22T03:17:02.871Z,9.40
2023-04-22T03:19:29.981Z,9.40
2023-04-22T03:21:57.575Z,9.30
2023-04-22T03:24:24.659Z,9.30
2023-04-22T03:26:51.772Z,9.20
2023-04-22T03:29:18.839Z,9.30
2023-04-22T03:31:45.915Z,9.30
2023-04-22T03:34:12.994Z,9.30
2023-04-22T03:36:40.089Z,9.30
2023-04-22T03:39:07.230Z,9.30
2023-04-22T03:41:34.273Z,9.40
2023-04-22T03:44:02.107Z,9.50
2023-04-22T03:46:29.340Z,9.60
2023-04-22T03:48:56.466Z,9.60
2023-04-22T03:51:23.585Z,9.60
2023-04-22T03:53:50.681Z,9.70
2023-04-22T03:56:18.129Z,9.70
2023-04-22T03:58:45.126Z,9.70
2023-04-22T04:01:12.198Z,9.70
2023-04-22T04:03:39.499Z,9.80
2023-04-22T04:06:06.781Z,9.90
2023-04-22T04:08:33.822Z,9.90
2023-04-22T04:11:00.983Z,9.90
2023-04-22T04:13:32.472Z,9.90
2023-04-22T04:16:00.480Z,9.90
2023-04-22T04:18:29.755Z,9.90
2023-04-22T04:20:56.973Z,9.90
2023-04-22T04:23:24.043Z,9.90
2023-04-22T04:25:52.109Z,9.90
2023-04-22T04:28:19.755Z,10.00
2023-04-22T04:30:47.275Z,10.00
2023-04-22T04:33:16.837Z,10.00
2023-04-22T04:35:44.971Z,10.00
2023-04-22T04:38:13.027Z,10.00
2023-04-22T04:40:40.093Z,10.00
2023-04-22T04:43:08.907Z,10.00
2023-04-22T04:45:39.377Z,10.00
2023-04-22T04:48:10.114Z,10.10
2023-04-22T04:50:37.395Z,10.10
2023-04-22T04:53:04.832Z,10.10
2023-04-22T04:55:32.016Z,10.10
2023-04-22T04:57:59.163Z,10.10
2023-04-22T05:00:26.338Z,10.10
2023-04-22T05:02:53.439Z,10.10
2023-04-22T05:05:20.604Z,10.10
2023-04-22T05:07:47.683Z,10.10
2023-04-22T05:10:14.766Z,10.10
2023-04-22T05:12:41.893Z,10.10
2023-04-22T05:15:09.313Z,10.10
2023-04-22T05:17:36.339Z,10.20
2023-04-22T05:20:04.350Z,10.20
2023-04-22T05:22:31.430Z,10.30
2023-04-22T05:25:01.565Z,10.30
2023-04-22T05:27:28.747Z,10.30
2023-04-22T05:29:55.788Z,10.40
2023-04-22T05:32:22.954Z,10.40
2023-04-22T05:34:50.009Z,10.50
2023-04-22T05:37:17.132Z,10.50
2023-04-22T05:39:44.147Z,10.50
2023-04-22T05:42:11.514Z,10.50
2023-04-22T05:44:38.586Z,10.50
2023-04-22T05:47:05.720Z,10.60
2023-04-22T05:49:32.890Z,10.70
2023-04-22T05:52:00.061Z,10.80
2023-04-22T05:54:27.313Z,11.00
2023-04-22T05:56:54.421Z,11.20
2023-04-22T05:59:37.663Z,11.50
2023-04-22T06:02:04.899Z,12.10
2023-04-22T06:04:35.397Z,12.90
2023-04-22T06:07:04.792Z,13.00
2023-04-22T06:09:31.849Z,13.20
2023-04-22T06:11:59.148Z,13.30
2023-04-22T06:14:26.255Z,13.20
2023-04-22T06:16:55.213Z,13.00
2023-04-22T06:19:22.216Z,12.90
2023-04-22T06:21:49.290Z,12.70
2023-04-22T06:24:16.333Z,12.50
2023-04-22T06:26:43.636Z,12.30
2023-04-22T06:29:10.711Z,12.30
2023-04-22T06:31:37.835Z,12.30
2023-04-22T06:34:05.298Z,12.30
2023-04-22T06:36:37.455Z,12.50
2023-04-22T06:39:07.720Z,12.80
2023-04-22T06:41:34.809Z,13.20
2023-04-22T06:44:01.831Z,13.60
2023-04-22T06:46:29.334Z,13.70
2023-04-22T06:48:56.387Z,13.60
2023-04-22T06:51:23.505Z,13.40
2023-04-22T06:53:53.312Z,13.50
2023-04-22T06:56:20.623Z,13.70
2023-04-22T06:58:47.736Z,13.70
2023-04-22T07:01:14.780Z,13.50
2023-04-22T07:03:41.911Z,13.60
2023-04-22T07:06:09.493Z,13.80
2023-04-22T07:08:36.767Z,14.20
2023-04-22T07:11:03.917Z,14.60
2023-04-22T07:13:34.252Z,15.00
2023-04-22T07:16:01.720Z,15.60
2023-04-22T07:18:29.352Z,16.20
2023-04-22T07:20:56.392Z,16.40
2023-04-22T07:23:23.730Z,16.60
2023-04-22T07:25:50.898Z,16.60
2023-04-22T07:28:18.076Z,16.50
2023-04-22T07:30:46.991Z,16.60
2023-04-22T07:33:14.117Z,16.70
2023-04-22T07:35:42.357Z,16.70
2023-04-22T07:38:10.124Z,16.70
2023-04-22T07:40:38.175Z,16.70
2023-04-22T07:43:06.159Z,16.70
2023-04-22T07:45:33.828Z,16.70
2023-04-22T07:48:00.982Z,16.60
2023-04-22T07:50:28.168Z,16.40
2023-04-22T07:52:55.308Z,16.30
2023-04-22T07:55:22.330Z,16.20
2023-04-22T07:57:49.493Z,16.30
2023-04-22T08:00:17.187Z,16.20
2023-04-22T08:02:44.567Z,16.20
2023-04-22T08:05:11.841Z,16.20
2023-04-22T08:07:39.039Z,16.20
2023-04-22T08:10:07.128Z,16.30
2023-04-22T08:12:34.275Z,16.40
2023-04-22T08:15:01.301Z,16.50
2023-04-22T08:17:28.552Z,16.30
2023-04-22T08:19:55.657Z,16.50
2023-04-22T08:22:24.105Z,16.60
2023-04-22T08:24:51.263Z,16.60
2023-04-22T08:27:19.475Z,16.70
2023-04-22T08:29:46.572Z,16.70
2023-04-22T08:32:13.689Z,16.70
2023-04-22T08:34:40.953Z,16.50
2023-04-22T08:37:08.735Z,16.50
2023-04-22T08:39:35.883Z,16.60
2023-04-22T08:42:03.492Z,16.70
2023-04-22T08:44:30.769Z,16.90
2023-04-22T08:46:59.948Z,17.00
2023-04-22T08:49:30.300Z,17.10
2023-04-22T08:51:57.721Z,17.10
2023-04-22T08:54:25.440Z,17.20
2023-04-22T08:56:52.636Z,17.30
2023-04-22T08:59:22.701Z,17.70
2023-04-22T09:01:54.307Z,18.00
2023-04-22T09:04:21.705Z,18.10
2023-04-22T09:06:48.823Z,18.10
2023-04-22T09:09:16.160Z,18.00
2023-04-22T09:11:43.520Z,17.90
2023-04-22T09:14:10.640Z,17.90
2023-04-22T09:16:48.612Z,17.90
2023-04-22T09:19:15.971Z,18.00
2023-04-22T09:21:43.144Z,18.10
2023-04-22T09:24:11.936Z,18.30
2023-04-22T09:26:42.899Z,18.40
2023-04-22T09:29:15.674Z,18.50
2023-04-22T09:31:43.262Z,18.70
2023-04-22T09:34:10.411Z,18.50
2023-04-22T09:36:37.921Z,18.70
2023-04-22T09:39:10.130Z,18.60
2023-04-22T09:41:41.509Z,18.30
2023-04-22T09:44:16.111Z,18.20
2023-04-22T09:46:44.615Z,18.40
2023-04-22T09:49:11.957Z,18.70
2023-04-22T09:51:42.503Z,18.70
2023-04-22T09:54:11.583Z,18.90
2023-04-22T09:56:49.788Z,19.00
2023-04-22T09:59:25.528Z,19.20
2023-04-22T10:01:56.065Z,19.30
2023-04-22T10:04:25.703Z,19.30
2023-04-22T10:06:54.214Z,19.50
2023-04-22T10:09:24.581Z,19.30
2023-04-22T10:11:54.310Z,19.00
2023-04-22T10:14:25.479Z,18.90
2023-04-22T10:16:59.105Z,19.10
2023-04-22T10:19:27.615Z,19.10
2023-04-22T10:21:58.088Z,19.10
2023-04-22T10:24:29.364Z,19.10
2023-04-22T10:27:01.680Z,19.40
2023-04-22T10:29:40.719Z,19.80
2023-04-22T10:32:11.191Z,20.30
2023-04-22T10:34:42.594Z,20.60
2023-04-22T10:37:11.816Z,20.70
2023-04-22T10:39:41.107Z,20.50
2023-04-22T10:42:13.196Z,20.90
2023-04-22T10:44:49.223Z,20.60
2023-04-22T10:47:45.519Z,20.70
2023-04-22T10:50:21.606Z,20.60
2023-04-22T10:52:55.588Z,20.70
2023-04-22T10:55:23.000Z,20.70
2023-04-22T10:57:51.515Z,20.70
2023-04-22T11:00:24.724Z,21.00
2023-04-22T11:02:55.518Z,21.00
2023-04-22T11:05:27.746Z,20.70
2023-04-22T11:08:01.661Z,20.70
2023-04-22T11:10:43.071Z,20.60
2023-04-22T11:13:19.448Z,20.50
2023-04-22T11:15:54.267Z,20.70
2023-04-22T11:18:25.712Z,20.80
2023-04-22T11:20:53.893Z,21.00
2023-04-22T11:23:28.552Z,21.00
2023-04-22T11:25:56.324Z,21.20
2023-04-22T11:28:23.484Z,21.00
2023-04-22T11:30:51.417Z,21.00
2023-04-22T11:33:19.475Z,21.10
2023-04-22T11:35:49.291Z,21.00
2023-04-22T11:38:16.404Z,21.60
2023-04-22T11:40:47.056Z,22.80
2023-04-22T11:43:14.712Z,23.10
2023-04-22T11:45:42.443Z,22.40
2023-04-22T11:48:11.503Z,22.00
2023-04-22T11:50:44.829Z,22.00
2023-04-22T11:53:21.049Z,21.70
2023-04-22T11:55:53.731Z,21.30
2023-04-22T11:58:25.879Z,20.90
2023-04-22T12:00:54.373Z,20.60
2023-04-22T12:03:29.202Z,20.60
2023-04-22T12:06:00.592Z,20.60
2023-04-22T12:08:32.411Z,20.40
2023-04-22T12:11:02.020Z,20.30
2023-04-22T12:13:34.793Z,20.40
2023-04-22T12:16:07.167Z,20.60
2023-04-22T12:18:37.208Z,20.50
2023-04-22T12:21:15.156Z,20.40
2023-04-22T12:23:53.284Z,20.50
2023-04-22T12:26:24.539Z,20.60
2023-04-22T12:28:54.153Z,21.10
2023-04-22T12:31:21.830Z,21.30
2023-04-22T12:33:50.985Z,21.20
2023-04-22T12:36:21.083Z,21.10
2023-04-22T12:38:48.431Z,21.10
2023-04-22T12:41:16.266Z,21.10
2023-04-22T12:43:43.404Z,21.20
2023-04-22T12:46:10.937Z,20.90
2023-04-22T12:48:38.139Z,20.80
2023-04-22T12:51:06.634Z,20.90
2023-04-22T12:53:33.904Z,21.10
2023-04-22T12:56:01.079Z,21.70
2023-04-22T12:58:28.166Z,21.80
2023-04-22T13:00:55.287Z,22.10
2023-04-22T13:03:22.508Z,22.00
2023-04-22T13:05:49.827Z,21.80
2023-04-22T13:08:17.920Z,21.70
2023-04-22T13:10:45.105Z,21.30
2023-04-22T13:15:42.315Z,20.90
2023-04-22T13:18:09.869Z,20.40
2023-04-22T13:20:37.167Z,20.00
2023-04-22T13:23:04.945Z,19.70
2023-04-22T13:25:32.319Z,19.70
2023-04-22T13:27:59.529Z,19.70
2023-04-22T13:30:26.809Z,19.60
2023-04-22T13:32:53.996Z,19.60
2023-04-22T13:35:21.061Z,19.60
2023-04-22T13:37:48.075Z,19.50
2023-04-22T13:40:15.369Z,19.50
2023-04-22T13:42:44.553Z,19.50
2023-04-22T13:45:11.818Z,19.30
2023-04-22T13:47:38.943Z,19.20
2023-04-22T13:50:06.715Z,19.00
2023-04-22T13:52:34.133Z,18.90
2023-04-22T13:55:03.187Z,18.90
2023-04-22T13:57:30.757Z,18.90
2023-04-22T13:59:57.895Z,18.70
2023-04-22T14:02:25.027Z,18.50
2023-04-22T14:04:52.435Z,18.30
2023-04-22T14:07:19.992Z,18.10
2023-04-22T14:09:47.132Z,17.90
2023-04-22T14:12:14.364Z,17.80
2023-04-22T14:14:41.480Z,17.60
2023-04-22T14:17:10.222Z,17.60
2023-04-22T14:19:42.662Z,17.50
2023-04-22T14:22:09.943Z,17.30
2023-04-22T14:24:37.247Z,17.30
2023-04-22T14:27:04.631Z,17.20
2023-04-22T14:29:32.110Z,17.20
2023-04-22T14:31:59.727Z,17.10
2023-04-22T14:34:27.483Z,17.10
2023-04-22T14:36:54.845Z,17.10
2023-04-22T14:39:22.145Z,17.10
2023-04-22T14:41:49.438Z,17.20
2023-04-22T14:44:16.813Z,17.20
2023-04-22T14:46:44.005Z,17.30
2023-04-22T14:49:12.491Z,17.40
2023-04-22T14:51:39.610Z,17.50
2023-04-22T14:54:06.952Z,17.50
2023-04-22T14:56:34.004Z,17.60
2023-04-22T14:59:02.008Z,18.00
2023-04-22T15:01:29.224Z,18.00
2023-04-22T15:03:56.534Z,18.00
2023-04-22T15:06:23.908Z,17.90
2023-04-22T15:08:54.126Z,17.80
2023-04-22T15:11:22.310Z,17.70
2023-04-22T15:13:49.375Z,17.50
2023-04-22T15:16:16.592Z,18.00
2023-04-22T15:18:43.667Z,17.80
2023-04-22T15:21:10.782Z,17.80
2023-04-22T15:23:38.014Z,17.70
2023-04-22T15:26:09.123Z,17.90
2023-04-22T15:28:36.320Z,18.00
2023-04-22T15:31:03.607Z,18.10
2023-04-22T15:33:30.748Z,18.30
2023-04-22T15:35:57.758Z,18.70
2023-04-22T15:38:24.944Z,18.90
2023-04-22T15:40:52.018Z,18.80
2023-04-22T15:43:19.068Z,18.70
2023-04-22T15:45:46.357Z,18.60
2023-04-22T15:48:13.436Z,18.30
2023-04-22T15:50:41.121Z,18.00
2023-04-22T15:53:08.328Z,17.90
2023-04-22T15:55:35.440Z,17.60
2023-04-22T15:58:02.884Z,17.40
2023-04-22T16:00:29.986Z,17.30
2023-04-22T16:02:57.247Z,17.20
2023-04-22T16:05:25.287Z,17.10
2023-04-22T16:07:53.431Z,17.00
2023-04-22T16:10:21.391Z,17.00
2023-04-22T16:12:49.106Z,17.00
2023-04-22T16:15:16.730Z,17.10
2023-04-22T16:17:44.452Z,17.00
2023-04-22T16:20:11.895Z,17.20
2023-04-22T16:22:39.068Z,17.30
2023-04-22T16:25:07.055Z,17.30
2023-04-22T16:27:34.394Z,17.40
2023-04-22T16:30:02.090Z,17.20
2023-04-22T16:32:29.303Z,17.10
2023-04-22T16:34:56.381Z,16.70
2023-04-22T16:37:23.538Z,16.60
2023-04-22T16:39:51.761Z,16.40
2023-04-22T16:42:19.060Z,16.30
2023-04-22T16:44:46.272Z,16.30
2023-04-22T16:47:13.327Z,16.40
2023-04-22T16:49:40.736Z,16.70
2023-04-22T16:52:07.993Z,16.50
2023-04-22T16:54:35.876Z,16.30
2023-04-22T16:57:04.889Z,16.20
2023-04-22T16:59:32.034Z,16.10
2023-04-22T17:01:59.847Z,16.00
2023-04-22T17:04:27.271Z,15.90
2023-04-22T17:06:55.606Z,15.70
2023-04-22T17:09:22.743Z,15.60
2023-04-22T17:11:49.850Z,15.40
2023-04-22T17:14:16.996Z,15.30
2023-04-22T17:16:44.090Z,15.00
2023-04-22T17:19:11.652Z,14.90
2023-04-22T17:21:38.687Z,14.70
2023-04-22T17:24:06.243Z,14.50
2023-04-22T17:26:33.764Z,14.40
2023-04-22T17:29:00.879Z,14.30
2023-04-22T17:31:28.444Z,14.10
2023-04-22T17:33:55.591Z,14.10
2023-04-22T17:36:22.653Z,14.00
2023-04-22T17:38:49.779Z,13.90
2023-04-22T17:41:18.680Z,13.80
2023-04-22T17:43:45.707Z,13.80
2023-04-22T17:46:12.855Z,13.70
2023-04-22T17:48:41.198Z,13.60
2023-04-22T17:51:08.521Z,13.60
2023-04-22T17:53:37.541Z,13.50
2023-04-22T17:56:04.688Z,13.50
2023-04-22T17:58:31.826Z,13.40
2023-04-22T18:00:58.936Z,13.40
2023-04-22T18:03:26.506Z,13.40
2023-04-22T18:05:53.633Z,13.30
2023-04-22T18:08:20.640Z,13.30
2023-04-22T18:10:47.734Z,13.30
2023-04-22T18:13:14.867Z,13.30
2023-04-22T18:15:41.906Z,13.30
2023-04-22T18:18:09.008Z,13.20
2023-04-22T18:20:36.198Z,13.20
2023-04-22T18:23:03.428Z,13.10
2023-04-22T18:25:31.234Z,13.10
2023-04-22T18:27:58.433Z,13.10
2023-04-22T18:30:26.814Z,13.10
2023-04-22T18:32:54.029Z,13.10
2023-04-22T18:35:21.336Z,13.00
2023-04-22T18:37:48.475Z,13.00
2023-04-22T18:40:17.353Z,13.00
2023-04-22T18:42:45.093Z,13.00
2023-04-22T18:45:12.760Z,13.00
2023-04-22T18:47:39.981Z,13.00
2023-04-22T18:50:07.696Z,13.00
2023-04-22T18:52:34.915Z,13.00
2023-04-22T18:55:02.144Z,13.00
2023-04-22T18:57:29.504Z,12.90
2023-04-22T18:59:56.543Z,12.90
2023-04-22T19:02:24.269Z,12.90
2023-04-22T19:04:54.235Z,12.80
2023-04-22T19:07:21.538Z,12.80
2023-04-22T19:09:48.634Z,12.80
2023-04-22T19:12:19.068Z,12.70
2023-04-22T19:14:48.085Z,12.70
2023-04-22T19:17:15.263Z,12.70
2023-04-22T19:19:44.573Z,12.70
2023-04-22T19:22:12.680Z,12.70
2023-04-22T19:24:40.066Z,12.70
2023-04-22T19:27:12.489Z,12.70
2023-04-22T19:29:41.733Z,12.70
2023-04-22T19:32:11.085Z,12.80
2023-04-22T19:34:39.216Z,12.70
2023-04-22T19:37:06.882Z,12.70
2023-04-22T19:39:33.988Z,12.70
2023-04-22T19:42:04.486Z,12.70
2023-04-22T19:44:31.690Z,12.70
2023-04-22T19:46:58.928Z,12.70
2023-04-22T19:49:26.594Z,12.70
2023-04-22T19:51:54.793Z,12.70
2023-04-22T19:54:22.260Z,12.70
2023-04-22T19:56:49.582Z,12.60
2023-04-22T19:59:18.906Z,12.60
2023-04-22T20:01:47.176Z,12.60
2023-04-22T20:04:14.590Z,12.60
2023-04-22T20:06:45.067Z,12.60
2023-04-22T20:09:13.699Z,12.60
2023-04-22T20:11:41.623Z,12.60
2023-04-22T20:14:10.348Z,12.60
2023-04-22T20:16:37.864Z,12.60
2023-04-22T20:19:05.241Z,12.50
2023-04-22T20:21:36.118Z,12.50
2023-04-22T20:24:04.546Z,12.50
2023-04-22T20:26:33.166Z,12.50
2023-04-22T20:29:01.074Z,12.50
2023-04-22T20:31:29.157Z,12.50
2023-04-22T20:33:57.328Z,12.50
2023-04-22T20:36:26.676Z,12.50
2023-04-22T20:38:56.349Z,12.50
2023-04-22T20:41:24.834Z,12.50
2023-04-22T20:43:52.467Z,12.50
2023-04-22T20:46:22.253Z,12.40
2023-04-22T20:48:50.138Z,12.30
2023-04-22T20:51:17.165Z,12.20
2023-04-22T20:53:45.462Z,12.10
2023-04-22T20:56:13.393Z,12.10
2023-04-22T20:58:40.421Z,12.00
2023-04-22T21:01:09.912Z,12.00
2023-04-22T21:03:40.445Z,12.00
2023-04-22T21:06:09.320Z,12.00
2023-04-22T21:08:39.469Z,11.90
2023-04-22T21:11:07.257Z,11.90
2023-04-22T21:13:34.753Z,11.90
2023-04-22T21:16:08.585Z,11.80
2023-04-22T21:18:41.333Z,11.70
2023-04-22T21:21:10.056Z,11.70
2023-04-22T21:23:37.491Z,11.60
2023-04-22T21:26:05.725Z,11.60
2023-04-22T21:28:33.283Z,11.60
2023-04-22T21:31:00.683Z,11.50
2023-04-22T21:33:27.759Z,11.50
2023-04-22T21:35:55.673Z,11.50
2023-04-22T21:38:22.757Z,11.40
2023-04-22T21:40:49.915Z,11.40
2023-04-22T21:43:17.045Z,11.40
2023-04-22T21:45:44.129Z,11.40
2023-04-22T21:48:11.165Z,11.30
2023-04-22T21:50:38.328Z,11.30
2023-04-22T21:53:05.546Z,11.20
2023-04-22T21:55:32.616Z,11.20
2023-04-22T21:57:59.689Z,11.10
2023-04-22T22:00:27.007Z,11.00
2023-04-22T22:02:54.511Z,10.90
2023-04-22T22:05:21.678Z,10.80
2023-04-22T22:07:49.181Z,10.80
2023-04-22T22:10:20.887Z,10.80
2023-04-22T22:12:48.549Z,10.70
2023-04-22T22:15:16.642Z,10.70
2023-04-22T22:17:45.119Z,10.70
2023-04-22T22:20:14.437Z,10.70
2023-04-22T22:22:43.526Z,10.60
2023-04-22T22:25:13.844Z,10.60
2023-04-22T22:27:41.836Z,10.60
2023-04-22T22:30:09.385Z,10.60
2023-04-22T22:32:36.614Z,10.60
2023-04-22T22:35:04.589Z,10.60
2023-04-22T22:37:32.393Z,10.50
2023-04-22T22:39:59.966Z,10.50
2023-04-22T22:42:27.029Z,10.40
2023-04-22T22:44:54.801Z,10.40
2023-04-22T22:47:21.945Z,10.40
2023-04-22T22:49:49.058Z,10.40
2023-04-22T22:52:16.123Z,10.40
2023-04-22T22:54:43.519Z,10.40
2023-04-22T22:57:11.851Z,10.40
2023-04-22T22:59:39.388Z,10.30
2023-04-22T23:02:06.609Z,10.30
2023-04-22T23:04:33.924Z,10.30
2023-04-22T23:07:01.562Z,10.30
2023-04-22T23:09:28.568Z,10.10
2023-04-22T23:11:55.804Z,10.00
2023-04-22T23:14:23.690Z,10.00
2023-04-22T23:16:51.178Z,10.00
2023-04-22T23:19:18.546Z,10.00
2023-04-22T23:21:46.870Z,10.00
2023-04-22T23:24:16.061Z,10.00
2023-04-22T23:26:43.331Z,9.90
2023-04-22T23:29:10.674Z,9.90
2023-04-22T23:31:40.426Z,10.00
2023-04-22T23:34:07.820Z,9.90
2023-04-22T23:36:37.464Z,9.90
2023-04-22T23:39:09.851Z,9.80
2023-04-22T23:41:37.296Z,9.70
2023-04-22T23:44:04.345Z,9.70
2023-04-22T23:46:31.498Z,9.60
2023-04-22T23:48:59.119Z,9.60
2023-04-22T23:51:26.657Z,9.50
2023-04-22T23:53:53.723Z,9.50
2023-04-22T23:56:23.016Z,9.50
2023-04-22T23:58:54.549Z,9.50
